sensor_id;sensor_type;location;lat;lon;timestamp;temperature;humidity
35277;DHT22;21401;50.878;8.050;2022-08-19T00:01:45;17.10;99.90
35277;DHT22;21401;50.878;8.050;2022-08-19T00:04:18;17.20;99.90
35277;DHT22;21401;50.878;8.050;2022-08-19T00:06:47;17.10;99.90
35277;DHT22;21401;50.878;8.050;2022-08-19T00:09:15;16.90;99.90
35277;DHT22;21401;50.878;8.050;2022-08-19T00:11:42;16.80;99.90
35277;DHT22;21401;50.878;8.050;2022-08-19T00:14:09;16.80;99.90
35277;DHT22;21401;50.878;8.050;2022-08-19T00:16:40;16.90;99.90
35277;DHT22;21401;50.878;8.050;2022-08-19T00:19:09;16.90;99.90
35277;DHT22;21401;50.878;8.050;2022-08-19T00:21:35;16.80;99.90
35277;DHT22;21401;50.878;8.050;2022-08-19T00:24:06;16.80;99.90
35277;DHT22;21401;50.878;8.050;2022-08-19T00:26:32;16.80;99.90
35277;DHT22;21401;50.878;8.050;2022-08-19T00:28:58;16.90;99.90
35277;DHT22;21401;50.878;8.050;2022-08-19T00:31:25;17.00;99.90
35277;DHT22;21401;50.878;8.050;2022-08-19T00:33:53;17.00;99.90
35277;DHT22;21401;50.878;8.050;2022-08-19T00:36:19;17.20;99.90
35277;DHT22;21401;50.878;8.050;2022-08-19T00:38:46;17.30;99.90
35277;DHT22;21401;50.878;8.050;2022-08-19T00:41:19;17.40;99.90
35277;DHT22;21401;50.878;8.050;2022-08-19T00:46:26;17.30;99.90
35277;DHT22;21401;50.878;8.050;2022-08-19T00:48:55;17.20;99.90
35277;DHT22;21401;50.878;8.050;2022-08-19T00:51:24;17.30;99.90
35277;DHT22;21401;50.878;8.050;2022-08-19T00:53:54;17.30;99.90
35277;DHT22;21401;50.878;8.050;2022-08-19T00:56:20;17.20;99.90
35277;DHT22;21401;50.878;8.050;2022-08-19T00:58:46;17.00;99.90
35277;DHT22;21401;50.878;8.050;2022-08-19T01:01:11;16.90;99.90
35277;DHT22;21401;50.878;8.050;2022-08-19T01:03:39;16.70;99.90
35277;DHT22;21401;50.878;8.050;2022-08-19T01:06:05;16.70;99.90
35277;DHT22;21401;50.878;8.050;2022-08-19T01:08:30;16.70;99.90
35277;DHT22;21401;50.878;8.050;2022-08-19T01:10:58;16.70;99.90
35277;DHT22;21401;50.878;8.050;2022-08-19T01:13:29;16.60;99.90
35277;DHT22;21401;50.878;8.050;2022-08-19T01:16:02;16.60;99.90
35277;DHT22;21401;50.878;8.050;2022-08-19T01:18:30;16.60;99.90
35277;DHT22;21401;50.878;8.050;2022-08-19T01:21:00;16.50;99.90
35277;DHT22;21401;50.878;8.050;2022-08-19T01:23:27;16.60;99.90
35277;DHT22;21401;50.878;8.050;2022-08-19T01:26:15;16.80;99.90
35277;DHT22;21401;50.878;8.050;2022-08-19T01:28:43;16.90;99.90
35277;DHT22;21401;50.878;8.050;2022-08-19T01:31:18;16.90;99.90
35277;DHT22;21401;50.878;8.050;2022-08-19T01:33:46;16.70;99.90
35277;DHT22;21401;50.878;8.050;2022-08-19T01:36:16;16.40;99.90
35277;DHT22;21401;50.878;8.050;2022-08-19T01:38:47;16.20;99.90
35277;DHT22;21401;50.878;8.050;2022-08-19T01:41:17;16.20;99.90
35277;DHT22;21401;50.878;8.050;2022-08-19T01:43:44;16.20;99.90
35277;DHT22;21401;50.878;8.050;2022-08-19T01:46:13;16.30;99.90
35277;DHT22;21401;50.878;8.050;2022-08-19T01:48:41;16.10;99.90
35277;DHT22;21401;50.878;8.050;2022-08-19T01:51:08;16.10;99.90
35277;DHT22;21401;50.878;8.050;2022-08-19T01:53:35;16.10;99.90
35277;DHT22;21401;50.878;8.050;2022-08-19T01:56:01;16.30;99.90
35277;DHT22;21401;50.878;8.050;2022-08-19T01:58:30;16.10;99.90
35277;DHT22;21401;50.878;8.050;2022-08-19T02:00:56;16.10;99.90
35277;DHT22;21401;50.878;8.050;2022-08-19T02:03:25;16.10;99.90
35277;DHT22;21401;50.878;8.050;2022-08-19T02:06:00;16.10;99.90
35277;DHT22;21401;50.878;8.050;2022-08-19T02:08:37;16.20;99.90
35277;DHT22;21401;50.878;8.050;2022-08-19T02:11:07;16.10;99.90
35277;DHT22;21401;50.878;8.050;2022-08-19T02:13:41;16.00;99.90
35277;DHT22;21401;50.878;8.050;2022-08-19T02:16:07;15.90;99.90
35277;DHT22;21401;50.878;8.050;2022-08-19T02:18:32;15.80;99.90
35277;DHT22;21401;50.878;8.050;2022-08-19T02:20:58;15.90;99.90
35277;DHT22;21401;50.878;8.050;2022-08-19T02:23:24;15.80;99.90
35277;DHT22;21401;50.878;8.050;2022-08-19T02:25:51;15.80;99.90
35277;DHT22;21401;50.878;8.050;2022-08-19T02:28:19;15.70;99.90
35277;DHT22;21401;50.878;8.050;2022-08-19T02:30:46;15.70;99.90
35277;DHT22;21401;50.878;8.050;2022-08-19T02:33:14;15.70;99.90
35277;DHT22;21401;50.878;8.050;2022-08-19T02:35:45;15.70;99.90
35277;DHT22;21401;50.878;8.050;2022-08-19T02:38:11;15.70;99.90
35277;DHT22;21401;50.878;8.050;2022-08-19T02:41:10;15.70;99.90
35277;DHT22;21401;50.878;8.050;2022-08-19T02:43:36;15.80;99.90
35277;DHT22;21401;50.878;8.050;2022-08-19T02:46:12;15.80;99.90
35277;DHT22;21401;50.878;8.050;2022-08-19T02:48:38;15.70;99.90
35277;DHT22;21401;50.878;8.050;2022-08-19T02:51:06;15.60;99.90
35277;DHT22;21401;50.878;8.050;2022-08-19T02:53:32;15.50;99.90
35277;DHT22;21401;50.878;8.050;2022-08-19T02:55:57;15.40;99.90
35277;DHT22;21401;50.878;8.050;2022-08-19T02:58:23;15.60;99.90
35277;DHT22;21401;50.878;8.050;2022-08-19T03:00:52;15.70;99.90
35277;DHT22;21401;50.878;8.050;2022-08-19T03:03:21;15.80;99.90
35277;DHT22;21401;50.878;8.050;2022-08-19T03:05:47;15.80;99.90
35277;DHT22;21401;50.878;8.050;2022-08-19T03:08:13;15.90;99.90
35277;DHT22;21401;50.878;8.050;2022-08-19T03:10:41;15.90;99.90
35277;DHT22;21401;50.878;8.050;2022-08-19T03:13:10;15.60;99.90
35277;DHT22;21401;50.878;8.050;2022-08-19T03:15:41;15.40;99.90
35277;DHT22;21401;50.878;8.050;2022-08-19T03:18:07;15.30;99.90
35277;DHT22;21401;50.878;8.050;2022-08-19T03:20:33;15.40;99.90
35277;DHT22;21401;50.878;8.050;2022-08-19T03:22:58;15.40;99.90
35277;DHT22;21401;50.878;8.050;2022-08-19T03:25:24;15.60;99.90
35277;DHT22;21401;50.878;8.050;2022-08-19T03:27:49;15.50;99.90
35277;DHT22;21401;50.878;8.050;2022-08-19T03:30:15;15.40;99.90
35277;DHT22;21401;50.878;8.050;2022-08-19T03:32:43;15.20;99.90
35277;DHT22;21401;50.878;8.050;2022-08-19T03:35:09;15.20;99.90
35277;DHT22;21401;50.878;8.050;2022-08-19T03:37:34;15.20;99.90
35277;DHT22;21401;50.878;8.050;2022-08-19T03:40:00;15.10;99.90
35277;DHT22;21401;50.878;8.050;2022-08-19T03:42:28;15.00;99.90
35277;DHT22;21401;50.878;8.050;2022-08-19T03:44:54;15.10;99.90
35277;DHT22;21401;50.878;8.050;2022-08-19T03:47:25;15.10;99.90
35277;DHT22;21401;50.878;8.050;2022-08-19T03:49:53;15.00;99.90
35277;DHT22;21401;50.878;8.050;2022-08-19T03:52:23;15.10;99.90
35277;DHT22;21401;50.878;8.050;2022-08-19T03:54:49;15.10;99.90
35277;DHT22;21401;50.878;8.050;2022-08-19T03:57:18;14.90;99.90
35277;DHT22;21401;50.878;8.050;2022-08-19T03:59:47;14.70;99.90
35277;DHT22;21401;50.878;8.050;2022-08-19T04:02:15;14.80;99.90
35277;DHT22;21401;50.878;8.050;2022-08-19T04:04:43;14.80;99.90
35277;DHT22;21401;50.878;8.050;2022-08-19T04:07:09;15.00;99.90
35277;DHT22;21401;50.878;8.050;2022-08-19T04:09:41;15.10;99.90
35277;DHT22;21401;50.878;8.050;2022-08-19T04:12:07;15.10;99.90
35277;DHT22;21401;50.878;8.050;2022-08-19T04:14:33;15.10;99.90
35277;DHT22;21401;50.878;8.050;2022-08-19T04:17:00;15.10;99.90
35277;DHT22;21401;50.878;8.050;2022-08-19T04:19:30;14.90;99.90
35277;DHT22;21401;50.878;8.050;2022-08-19T04:21:56;14.70;99.90
35277;DHT22;21401;50.878;8.050;2022-08-19T04:24:27;14.60;99.90
35277;DHT22;21401;50.878;8.050;2022-08-19T04:26:55;14.50;99.90
35277;DHT22;21401;50.878;8.050;2022-08-19T04:29:23;14.70;99.90
35277;DHT22;21401;50.878;8.050;2022-08-19T04:31:56;14.80;99.90
35277;DHT22;21401;50.878;8.050;2022-08-19T04:34:24;14.80;99.90
35277;DHT22;21401;50.878;8.050;2022-08-19T04:36:51;14.80;99.90
35277;DHT22;21401;50.878;8.050;2022-08-19T04:39:21;15.00;99.90
35277;DHT22;21401;50.878;8.050;2022-08-19T04:41:47;15.00;99.90
35277;DHT22;21401;50.878;8.050;2022-08-19T04:44:33;14.70;99.90
35277;DHT22;21401;50.878;8.050;2022-08-19T04:46:59;14.70;99.90
35277;DHT22;21401;50.878;8.050;2022-08-19T04:49:28;14.70;99.90
35277;DHT22;21401;50.878;8.050;2022-08-19T04:51:54;14.80;99.90
35277;DHT22;21401;50.878;8.050;2022-08-19T04:54:21;14.90;99.90
35277;DHT22;21401;50.878;8.050;2022-08-19T04:56:48;14.60;99.90
35277;DHT22;21401;50.878;8.050;2022-08-19T04:59:15;14.50;99.90
35277;DHT22;21401;50.878;8.050;2022-08-19T05:01:43;14.70;99.90
35277;DHT22;21401;50.878;8.050;2022-08-19T05:04:09;14.60;99.90
35277;DHT22;21401;50.878;8.050;2022-08-19T05:06:35;14.60;99.90
35277;DHT22;21401;50.878;8.050;2022-08-19T05:09:03;14.50;99.90
35277;DHT22;21401;50.878;8.050;2022-08-19T05:11:31;14.50;99.90
35277;DHT22;21401;50.878;8.050;2022-08-19T05:13:57;14.50;99.90
35277;DHT22;21401;50.878;8.050;2022-08-19T05:16:25;14.50;99.90
35277;DHT22;21401;50.878;8.050;2022-08-19T05:18:51;14.80;99.90
35277;DHT22;21401;50.878;8.050;2022-08-19T05:21:42;15.00;99.90
35277;DHT22;21401;50.878;8.050;2022-08-19T05:24:27;14.90;99.90
35277;DHT22;21401;50.878;8.050;2022-08-19T05:26:54;14.90;99.90
35277;DHT22;21401;50.878;8.050;2022-08-19T05:29:23;14.90;99.90
35277;DHT22;21401;50.878;8.050;2022-08-19T05:31:55;15.00;99.90
35277;DHT22;21401;50.878;8.050;2022-08-19T05:34:22;15.20;99.90
35277;DHT22;21401;50.878;8.050;2022-08-19T05:36:53;15.30;99.90
35277;DHT22;21401;50.878;8.050;2022-08-19T05:39:21;15.40;99.90
35277;DHT22;21401;50.878;8.050;2022-08-19T05:41:53;15.60;99.90
35277;DHT22;21401;50.878;8.050;2022-08-19T05:44:20;15.70;99.90
35277;DHT22;21401;50.878;8.050;2022-08-19T05:46:52;15.70;99.90
35277;DHT22;21401;50.878;8.050;2022-08-19T05:49:22;15.60;99.90
35277;DHT22;21401;50.878;8.050;2022-08-19T05:51:51;15.70;99.90
35277;DHT22;21401;50.878;8.050;2022-08-19T05:54:18;15.60;99.90
35277;DHT22;21401;50.878;8.050;2022-08-19T05:56:52;15.60;99.90
35277;DHT22;21401;50.878;8.050;2022-08-19T05:59:18;15.60;99.90
35277;DHT22;21401;50.878;8.050;2022-08-19T06:01:47;15.60;99.90
35277;DHT22;21401;50.878;8.050;2022-08-19T06:04:16;15.70;99.90
35277;DHT22;21401;50.878;8.050;2022-08-19T06:06:44;15.80;99.90
35277;DHT22;21401;50.878;8.050;2022-08-19T06:09:10;15.70;99.90
35277;DHT22;21401;50.878;8.050;2022-08-19T06:14:13;15.80;99.90
35277;DHT22;21401;50.878;8.050;2022-08-19T06:16:40;16.00;99.90
35277;DHT22;21401;50.878;8.050;2022-08-19T06:19:17;16.10;99.90
35277;DHT22;21401;50.878;8.050;2022-08-19T06:21:45;16.10;99.90
35277;DHT22;21401;50.878;8.050;2022-08-19T06:24:14;16.20;99.90
35277;DHT22;21401;50.878;8.050;2022-08-19T06:26:43;16.40;99.90
35277;DHT22;21401;50.878;8.050;2022-08-19T06:29:12;16.40;99.90
35277;DHT22;21401;50.878;8.050;2022-08-19T06:31:42;16.40;99.90
35277;DHT22;21401;50.878;8.050;2022-08-19T06:34:09;16.40;99.90
35277;DHT22;21401;50.878;8.050;2022-08-19T06:36:40;16.60;99.90
35277;DHT22;21401;50.878;8.050;2022-08-19T06:39:19;16.80;99.90
35277;DHT22;21401;50.878;8.050;2022-08-19T06:42:00;17.00;99.90
35277;DHT22;21401;50.878;8.050;2022-08-19T06:47:38;16.90;99.90
35277;DHT22;21401;50.878;8.050;2022-08-19T06:50:25;17.10;99.90
35277;DHT22;21401;50.878;8.050;2022-08-19T06:53:20;17.10;99.90
35277;DHT22;21401;50.878;8.050;2022-08-19T06:56:00;17.20;99.90
35277;DHT22;21401;50.878;8.050;2022-08-19T06:58:33;17.30;99.90
35277;DHT22;21401;50.878;8.050;2022-08-19T07:01:10;17.40;99.90
35277;DHT22;21401;50.878;8.050;2022-08-19T07:03:38;17.40;99.90
35277;DHT22;21401;50.878;8.050;2022-08-19T07:06:08;17.40;99.90
35277;DHT22;21401;50.878;8.050;2022-08-19T07:08:36;17.50;99.90
35277;DHT22;21401;50.878;8.050;2022-08-19T07:11:17;17.60;99.90
35277;DHT22;21401;50.878;8.050;2022-08-19T07:13:45;17.60;99.90
35277;DHT22;21401;50.878;8.050;2022-08-19T07:16:16;17.70;99.90
35277;DHT22;21401;50.878;8.050;2022-08-19T07:18:54;17.60;99.90
35277;DHT22;21401;50.878;8.050;2022-08-19T07:21:36;17.80;99.90
35277;DHT22;21401;50.878;8.050;2022-08-19T07:24:03;18.00;99.90
35277;DHT22;21401;50.878;8.050;2022-08-19T07:26:51;18.30;99.90
35277;DHT22;21401;50.878;8.050;2022-08-19T07:29:45;18.60;99.90
35277;DHT22;21401;50.878;8.050;2022-08-19T07:32:15;18.60;99.90
35277;DHT22;21401;50.878;8.050;2022-08-19T07:34:41;18.80;99.90
35277;DHT22;21401;50.878;8.050;2022-08-19T07:37:07;19.20;99.90
35277;DHT22;21401;50.878;8.050;2022-08-19T07:39:38;19.40;99.90
35277;DHT22;21401;50.878;8.050;2022-08-19T07:42:11;19.60;99.90
35277;DHT22;21401;50.878;8.050;2022-08-19T07:44:37;19.70;99.90
35277;DHT22;21401;50.878;8.050;2022-08-19T07:47:06;19.70;99.90
35277;DHT22;21401;50.878;8.050;2022-08-19T07:49:32;19.80;99.90
35277;DHT22;21401;50.878;8.050;2022-08-19T07:52:05;19.70;99.90
35277;DHT22;21401;50.878;8.050;2022-08-19T07:54:33;20.00;99.90
35277;DHT22;21401;50.878;8.050;2022-08-19T07:57:00;20.20;99.90
35277;DHT22;21401;50.878;8.050;2022-08-19T07:59:28;20.00;99.90
35277;DHT22;21401;50.878;8.050;2022-08-19T08:01:55;20.30;99.90
35277;DHT22;21401;50.878;8.050;2022-08-19T08:04:38;20.60;99.90
35277;DHT22;21401;50.878;8.050;2022-08-19T08:07:23;20.70;99.90
35277;DHT22;21401;50.878;8.050;2022-08-19T08:10:17;20.70;99.90
35277;DHT22;21401;50.878;8.050;2022-08-19T08:12:43;21.10;99.90
35277;DHT22;21401;50.878;8.050;2022-08-19T08:15:13;21.20;99.90
35277;DHT22;21401;50.878;8.050;2022-08-19T08:17:43;21.20;99.90
35277;DHT22;21401;50.878;8.050;2022-08-19T08:20:09;21.40;99.90
35277;DHT22;21401;50.878;8.050;2022-08-19T08:22:35;21.60;99.90
35277;DHT22;21401;50.878;8.050;2022-08-19T08:25:21;21.70;99.90
35277;DHT22;21401;50.878;8.050;2022-08-19T08:27:49;21.90;99.90
35277;DHT22;21401;50.878;8.050;2022-08-19T08:30:25;22.10;99.90
35277;DHT22;21401;50.878;8.050;2022-08-19T08:32:52;22.20;99.90
35277;DHT22;21401;50.878;8.050;2022-08-19T08:35:20;22.30;99.90
35277;DHT22;21401;50.878;8.050;2022-08-19T08:37:52;22.50;99.90
35277;DHT22;21401;50.878;8.050;2022-08-19T08:40:34;22.50;99.90
35277;DHT22;21401;50.878;8.050;2022-08-19T08:43:06;22.70;99.90
35277;DHT22;21401;50.878;8.050;2022-08-19T08:45:38;22.60;99.90
35277;DHT22;21401;50.878;8.050;2022-08-19T08:48:24;22.50;99.90
35277;DHT22;21401;50.878;8.050;2022-08-19T08:50:53;22.50;99.90
35277;DHT22;21401;50.878;8.050;2022-08-19T08:53:20;22.60;99.90
35277;DHT22;21401;50.878;8.050;2022-08-19T08:55:46;22.80;99.90
35277;DHT22;21401;50.878;8.050;2022-08-19T08:58:26;22.40;99.90
35277;DHT22;21401;50.878;8.050;2022-08-19T09:00:53;22.80;99.90
35277;DHT22;21401;50.878;8.050;2022-08-19T09:03:27;22.90;99.90
35277;DHT22;21401;50.878;8.050;2022-08-19T09:10:56;23.30;99.90
35277;DHT22;21401;50.878;8.050;2022-08-19T09:15:58;23.60;99.90
35277;DHT22;21401;50.878;8.050;2022-08-19T09:19:00;23.50;99.90
35277;DHT22;21401;50.878;8.050;2022-08-19T09:21:27;23.60;99.90
35277;DHT22;21401;50.878;8.050;2022-08-19T09:23:56;23.50;99.90
35277;DHT22;21401;50.878;8.050;2022-08-19T09:26:24;23.70;99.90
35277;DHT22;21401;50.878;8.050;2022-08-19T09:28:51;24.10;99.90
35277;DHT22;21401;50.878;8.050;2022-08-19T09:31:27;23.90;99.90
35277;DHT22;21401;50.878;8.050;2022-08-19T09:33:55;24.00;99.90
35277;DHT22;21401;50.878;8.050;2022-08-19T09:39:55;24.40;99.90
35277;DHT22;21401;50.878;8.050;2022-08-19T09:42:20;24.20;99.90
35277;DHT22;21401;50.878;8.050;2022-08-19T09:44:46;24.80;99.90
35277;DHT22;21401;50.878;8.050;2022-08-19T09:47:13;25.10;99.90
35277;DHT22;21401;50.878;8.050;2022-08-19T09:49:39;24.20;99.90
35277;DHT22;21401;50.878;8.050;2022-08-19T09:52:08;23.70;99.90
35277;DHT22;21401;50.878;8.050;2022-08-19T09:54:34;24.10;99.90
35277;DHT22;21401;50.878;8.050;2022-08-19T09:57:00;23.80;99.90
35277;DHT22;21401;50.878;8.050;2022-08-19T09:59:26;23.80;99.90
35277;DHT22;21401;50.878;8.050;2022-08-19T10:01:52;24.50;99.90
35277;DHT22;21401;50.878;8.050;2022-08-19T10:04:18;23.90;99.90
35277;DHT22;21401;50.878;8.050;2022-08-19T10:06:45;24.40;99.90
35277;DHT22;21401;50.878;8.050;2022-08-19T10:09:14;25.00;99.90
35277;DHT22;21401;50.878;8.050;2022-08-19T10:11:42;25.60;99.30
35277;DHT22;21401;50.878;8.050;2022-08-19T10:14:08;25.90;98.10
35277;DHT22;21401;50.878;8.050;2022-08-19T10:16:35;25.20;98.30
35277;DHT22;21401;50.878;8.050;2022-08-19T10:19:01;25.60;98.30
35277;DHT22;21401;50.878;8.050;2022-08-19T10:21:30;25.30;97.70
35277;DHT22;21401;50.878;8.050;2022-08-19T10:24:01;25.60;97.20
35277;DHT22;21401;50.878;8.050;2022-08-19T10:26:31;25.70;97.20
35277;DHT22;21401;50.878;8.050;2022-08-19T10:28:57;25.80;96.30
35277;DHT22;21401;50.878;8.050;2022-08-19T10:31:28;25.70;96.60
35277;DHT22;21401;50.878;8.050;2022-08-19T10:33:55;25.60;96.40
35277;DHT22;21401;50.878;8.050;2022-08-19T10:36:27;25.30;96.80
35277;DHT22;21401;50.878;8.050;2022-08-19T10:38:55;26.00;96.60
35277;DHT22;21401;50.878;8.050;2022-08-19T10:41:28;25.80;95.70
35277;DHT22;21401;50.878;8.050;2022-08-19T10:43:56;25.90;96.00
35277;DHT22;21401;50.878;8.050;2022-08-19T10:46:25;26.20;94.90
35277;DHT22;21401;50.878;8.050;2022-08-19T10:48:51;26.00;94.80
35277;DHT22;21401;50.878;8.050;2022-08-19T10:51:17;25.50;95.40
35277;DHT22;21401;50.878;8.050;2022-08-19T10:54:02;25.50;96.00
35277;DHT22;21401;50.878;8.050;2022-08-19T10:56:29;25.90;96.20
35277;DHT22;21401;50.878;8.050;2022-08-19T10:59:16;25.90;96.20
35277;DHT22;21401;50.878;8.050;2022-08-19T11:01:43;26.30;95.00
35277;DHT22;21401;50.878;8.050;2022-08-19T11:04:09;26.60;94.90
35277;DHT22;21401;50.878;8.050;2022-08-19T11:06:37;27.20;94.00
35277;DHT22;21401;50.878;8.050;2022-08-19T11:09:05;26.80;93.50
35277;DHT22;21401;50.878;8.050;2022-08-19T11:11:31;26.60;94.40
35277;DHT22;21401;50.878;8.050;2022-08-19T11:14:05;26.30;95.20
35277;DHT22;21401;50.878;8.050;2022-08-19T11:16:30;26.50;95.50
35277;DHT22;21401;50.878;8.050;2022-08-19T11:18:59;26.90;95.50
35277;DHT22;21401;50.878;8.050;2022-08-19T11:21:29;27.00;95.30
35277;DHT22;21401;50.878;8.050;2022-08-19T11:24:01;27.20;95.30
35277;DHT22;21401;50.878;8.050;2022-08-19T11:26:28;27.30;93.80
35277;DHT22;21401;50.878;8.050;2022-08-19T11:28:55;26.70;92.50
35277;DHT22;21401;50.878;8.050;2022-08-19T11:31:23;27.30;91.70
35277;DHT22;21401;50.878;8.050;2022-08-19T11:34:02;27.10;92.20
35277;DHT22;21401;50.878;8.050;2022-08-19T11:36:28;26.40;92.20
35277;DHT22;21401;50.878;8.050;2022-08-19T11:38:57;26.30;94.50
35277;DHT22;21401;50.878;8.050;2022-08-19T11:41:23;26.10;93.80
35277;DHT22;21401;50.878;8.050;2022-08-19T11:43:53;25.90;94.80
35277;DHT22;21401;50.878;8.050;2022-08-19T11:46:24;25.60;94.70
35277;DHT22;21401;50.878;8.050;2022-08-19T11:48:50;25.70;95.30
35277;DHT22;21401;50.878;8.050;2022-08-19T11:51:21;26.30;94.40
35277;DHT22;21401;50.878;8.050;2022-08-19T11:53:47;26.60;93.60
35277;DHT22;21401;50.878;8.050;2022-08-19T11:56:15;27.00;93.00
35277;DHT22;21401;50.878;8.050;2022-08-19T11:58:40;27.00;93.20
35277;DHT22;21401;50.878;8.050;2022-08-19T12:01:09;26.90;92.70
35277;DHT22;21401;50.878;8.050;2022-08-19T12:03:36;27.00;92.90
35277;DHT22;21401;50.878;8.050;2022-08-19T12:06:25;26.10;92.40
35277;DHT22;21401;50.878;8.050;2022-08-19T12:08:57;25.70;93.40
35277;DHT22;21401;50.878;8.050;2022-08-19T12:11:23;25.70;93.50
35277;DHT22;21401;50.878;8.050;2022-08-19T12:13:49;26.10;93.80
35277;DHT22;21401;50.878;8.050;2022-08-19T12:16:18;26.40;93.50
35277;DHT22;21401;50.878;8.050;2022-08-19T12:18:45;26.30;93.50
35277;DHT22;21401;50.878;8.050;2022-08-19T12:21:15;26.00;93.60
35277;DHT22;21401;50.878;8.050;2022-08-19T12:23:42;26.20;93.40
35277;DHT22;21401;50.878;8.050;2022-08-19T12:26:09;26.40;93.50
35277;DHT22;21401;50.878;8.050;2022-08-19T12:28:35;26.80;93.30
35277;DHT22;21401;50.878;8.050;2022-08-19T12:31:01;26.90;93.00
35277;DHT22;21401;50.878;8.050;2022-08-19T12:33:26;26.80;92.50
35277;DHT22;21401;50.878;8.050;2022-08-19T12:35:54;26.80;92.00
35277;DHT22;21401;50.878;8.050;2022-08-19T12:38:20;26.50;92.30
35277;DHT22;21401;50.878;8.050;2022-08-19T12:40:48;26.60;92.30
35277;DHT22;21401;50.878;8.050;2022-08-19T12:43:15;26.40;92.40
35277;DHT22;21401;50.878;8.050;2022-08-19T12:45:45;26.60;92.00
35277;DHT22;21401;50.878;8.050;2022-08-19T12:48:11;26.90;91.70
35277;DHT22;21401;50.878;8.050;2022-08-19T12:50:40;26.50;91.80
35277;DHT22;21401;50.878;8.050;2022-08-19T12:53:06;27.10;92.00
35277;DHT22;21401;50.878;8.050;2022-08-19T12:55:34;27.50;91.50
35277;DHT22;21401;50.878;8.050;2022-08-19T12:57:59;27.30;91.10
35277;DHT22;21401;50.878;8.050;2022-08-19T13:00:26;27.60;91.00
35277;DHT22;21401;50.878;8.050;2022-08-19T13:02:52;27.70;90.80
35277;DHT22;21401;50.878;8.050;2022-08-19T13:05:25;28.00;90.70
35277;DHT22;21401;50.878;8.050;2022-08-19T13:07:53;27.70;90.20
35277;DHT22;21401;50.878;8.050;2022-08-19T13:10:22;27.60;91.10
35277;DHT22;21401;50.878;8.050;2022-08-19T13:12:51;27.80;90.80
35277;DHT22;21401;50.878;8.050;2022-08-19T13:15:19;27.60;89.70
35277;DHT22;21401;50.878;8.050;2022-08-19T13:17:46;27.20;90.20
35277;DHT22;21401;50.878;8.050;2022-08-19T13:20:14;27.20;90.30
35277;DHT22;21401;50.878;8.050;2022-08-19T13:22:40;27.30;88.30
35277;DHT22;21401;50.878;8.050;2022-08-19T13:25:07;27.30;90.20
35277;DHT22;21401;50.878;8.050;2022-08-19T13:27:32;26.80;90.30
35277;DHT22;21401;50.878;8.050;2022-08-19T13:29:59;26.50;90.50
35277;DHT22;21401;50.878;8.050;2022-08-19T13:32:43;26.50;90.80
35277;DHT22;21401;50.878;8.050;2022-08-19T13:35:27;26.80;91.20
35277;DHT22;21401;50.878;8.050;2022-08-19T13:37:53;27.40;90.70
35277;DHT22;21401;50.878;8.050;2022-08-19T13:40:23;27.70;91.20
35277;DHT22;21401;50.878;8.050;2022-08-19T13:42:51;27.20;91.90
35277;DHT22;21401;50.878;8.050;2022-08-19T13:45:21;27.10;92.20
35277;DHT22;21401;50.878;8.050;2022-08-19T13:47:52;26.90;92.60
35277;DHT22;21401;50.878;8.050;2022-08-19T13:50:21;26.80;92.40
35277;DHT22;21401;50.878;8.050;2022-08-19T13:52:49;26.60;92.40
35277;DHT22;21401;50.878;8.050;2022-08-19T13:55:17;26.20;92.80
35277;DHT22;21401;50.878;8.050;2022-08-19T13:57:43;26.20;92.90
35277;DHT22;21401;50.878;8.050;2022-08-19T14:00:12;26.20;93.20
35277;DHT22;21401;50.878;8.050;2022-08-19T14:02:39;25.80;94.20
35277;DHT22;21401;50.878;8.050;2022-08-19T14:05:07;25.90;94.40
35277;DHT22;21401;50.878;8.050;2022-08-19T14:07:34;25.90;94.40
35277;DHT22;21401;50.878;8.050;2022-08-19T14:10:03;25.40;94.80
35277;DHT22;21401;50.878;8.050;2022-08-19T14:12:33;25.70;94.80
35277;DHT22;21401;50.878;8.050;2022-08-19T14:15:02;25.80;94.10
35277;DHT22;21401;50.878;8.050;2022-08-19T14:17:30;25.90;94.00
35277;DHT22;21401;50.878;8.050;2022-08-19T14:19:58;25.70;93.80
35277;DHT22;21401;50.878;8.050;2022-08-19T14:22:31;26.00;93.80
35277;DHT22;21401;50.878;8.050;2022-08-19T14:24:57;26.10;93.40
35277;DHT22;21401;50.878;8.050;2022-08-19T14:27:23;26.20;93.40
35277;DHT22;21401;50.878;8.050;2022-08-19T14:29:51;26.10;93.10
35277;DHT22;21401;50.878;8.050;2022-08-19T14:32:17;26.10;93.20
35277;DHT22;21401;50.878;8.050;2022-08-19T14:34:42;26.20;93.20
35277;DHT22;21401;50.878;8.050;2022-08-19T14:37:12;26.50;92.60
35277;DHT22;21401;50.878;8.050;2022-08-19T14:39:40;26.30;92.10
35277;DHT22;21401;50.878;8.050;2022-08-19T14:42:11;26.40;92.50
35277;DHT22;21401;50.878;8.050;2022-08-19T14:44:39;26.40;92.20
35277;DHT22;21401;50.878;8.050;2022-08-19T14:47:05;26.40;92.10
35277;DHT22;21401;50.878;8.050;2022-08-19T14:49:32;26.50;91.90
35277;DHT22;21401;50.878;8.050;2022-08-19T14:51:58;26.40;92.00
35277;DHT22;21401;50.878;8.050;2022-08-19T14:54:24;26.40;91.90
35277;DHT22;21401;50.878;8.050;2022-08-19T14:56:49;26.60;91.70
35277;DHT22;21401;50.878;8.050;2022-08-19T14:59:15;26.60;91.20
35277;DHT22;21401;50.878;8.050;2022-08-19T15:01:41;26.40;90.90
35277;DHT22;21401;50.878;8.050;2022-08-19T15:04:07;26.60;91.30
35277;DHT22;21401;50.878;8.050;2022-08-19T15:06:32;26.90;91.00
35277;DHT22;21401;50.878;8.050;2022-08-19T15:08:59;27.10;90.50
35277;DHT22;21401;50.878;8.050;2022-08-19T15:11:26;27.20;90.50
35277;DHT22;21401;50.878;8.050;2022-08-19T15:13:54;27.20;90.40
35277;DHT22;21401;50.878;8.050;2022-08-19T15:16:20;26.90;90.50
35277;DHT22;21401;50.878;8.050;2022-08-19T15:18:49;27.00;90.50
35277;DHT22;21401;50.878;8.050;2022-08-19T15:21:18;27.10;90.40
35277;DHT22;21401;50.878;8.050;2022-08-19T15:23:47;27.30;89.90
35277;DHT22;21401;50.878;8.050;2022-08-19T15:26:14;27.30;90.50
35277;DHT22;21401;50.878;8.050;2022-08-19T15:28:40;27.20;90.40
35277;DHT22;21401;50.878;8.050;2022-08-19T15:31:06;26.80;90.60
35277;DHT22;21401;50.878;8.050;2022-08-19T15:33:35;26.70;91.10
35277;DHT22;21401;50.878;8.050;2022-08-19T15:36:06;26.50;90.60
35277;DHT22;21401;50.878;8.050;2022-08-19T15:38:32;26.20;90.40
35277;DHT22;21401;50.878;8.050;2022-08-19T15:40:59;26.30;90.30
35277;DHT22;21401;50.878;8.050;2022-08-19T15:43:46;26.10;90.30
35277;DHT22;21401;50.878;8.050;2022-08-19T15:46:16;26.00;90.60
35277;DHT22;21401;50.878;8.050;2022-08-19T15:48:43;26.10;90.80
35277;DHT22;21401;50.878;8.050;2022-08-19T15:51:08;26.10;91.30
35277;DHT22;21401;50.878;8.050;2022-08-19T15:53:34;26.30;91.40
35277;DHT22;21401;50.878;8.050;2022-08-19T15:56:02;26.50;91.50
35277;DHT22;21401;50.878;8.050;2022-08-19T15:58:27;26.60;91.50
35277;DHT22;21401;50.878;8.050;2022-08-19T16:01:12;26.60;91.40
35277;DHT22;21401;50.878;8.050;2022-08-19T16:03:57;26.70;91.30